Flight Track Log - Related Links

Times and Time Zones

All times are in EST time to prevent confusion due to time zone crossing. See the CES5528 flight status page for this flight to view local times or setup timezone preferences in your user account.

Time Position Orientation Groundspeed Altitude Reporting Facility
EST Latitude Longitude Course Direction KTS MPH feet Rate Location/Type
Fri 10:18:00 AM 33.7285 115.1953 113° Southeast  Level Estimated
Fri 10:19:00 AM 33.6704 115.3493 114° Southeast  Level Estimated
Fri 10:20:00 AM 33.6121 115.5031 114° Southeast  Level Estimated
Fri 10:21:00 AM 33.5536 115.6566 115° Southeast  Level Estimated
Fri 10:22:00 AM 33.4950 115.8099 115° Southeast  Level Estimated
Fri 10:23:00 AM 33.4361 115.9631 115° Southeast  Level Estimated
Fri 10:24:00 AM 33.3770 116.1160 115° Southeast  Level Estimated
Fri 10:25:00 AM 33.3178 116.2687 115° Southeast  Level Estimated
Fri 10:26:00 AM 33.2584 116.4212 115° Southeast  Level Estimated
Fri 10:27:00 AM 33.1988 116.5735 115° Southeast  Level Estimated
Fri 10:28:00 AM 33.1390 116.7256 115° Southeast  Level Estimated
Fri 10:29:00 AM 33.0790 116.8775 115° Southeast  Level Estimated
Fri 10:30:00 AM 33.0188 117.0292 115° Southeast  Level Estimated
Fri 10:31:00 AM 32.9585 117.1806 115° Southeast  Level Estimated
Fri 10:32:00 AM 32.8979 117.3319 115° Southeast  Level Estimated
Fri 10:33:00 AM 32.8372 117.4830 116° Southeast  Level Estimated
Fri 10:34:00 AM 32.7763 117.6338 116° Southeast  Level Estimated
Fri 10:35:00 AM 32.7152 117.7845 116° Southeast  Level Estimated
Fri 10:36:00 AM 32.6540 117.9349 116° Southeast  Level Estimated
Fri 10:37:00 AM 32.5925 118.0851 116° Southeast  Level Estimated
Fri 10:38:00 AM 32.5309 118.2352 116° Southeast  Level Estimated
Fri 10:39:00 AM 32.4691 118.3850 116° Southeast  Level Estimated
Fri 10:40:00 AM 32.4072 118.5346 116° Southeast  Level Estimated
Fri 10:41:00 AM 32.3450 118.6840 116° Southeast  Level Estimated
Fri 10:42:00 AM 32.2827 118.8332 116° Southeast  Level Estimated
Fri 10:43:00 AM 32.2202 118.9822 116° Southeast  Level Estimated
Fri 10:44:00 AM 32.1575 119.1310 116° Southeast  Level Estimated
Fri 10:45:00 AM 32.0947 119.2796 116° Southeast  Level Estimated
Fri 10:46:00 AM 32.0317 119.4279 117° Southeast  Level Estimated
Fri 10:47:00 AM 31.9685 119.5761 117° Southeast  Level Estimated
Fri 10:48:00 AM 31.9051 119.7241 117° Southeast  Level Estimated
Fri 10:49:00 AM 31.8416 119.8719 117° Southeast  Level Estimated
Fri 10:50:00 AM 31.7778 120.0194 117° Southeast  Level Estimated
Fri 10:51:00 AM 31.7140 120.1668 117° Southeast  Level Estimated
Fri 10:52:00 AM 31.6499 120.3140 117° Southeast  Level Estimated
Fri 10:53:00 AM 31.5857 120.4609 117° Southeast  Level Estimated
Fri 10:54:00 AM 31.5213 120.6077 117° Southeast  Level Estimated
Fri 10:55:00 AM 31.4568 120.7542 117° Southeast  Level Estimated
Fri 10:56:00 AM 31.3921 120.9006 117° Southeast  Level Estimated
Fri 10:57:00 AM 31.3272 121.0467 117° Southeast  Level Estimated
Fri 10:58:00 AM 31.2621 121.1927 118° Southeast  Level Estimated
Fri 10:59:00 AM 31.1979 121.3363 118° Southeast  Level Estimated
Fri 11:00:00 AM 31.1979 121.3363 350° North  Level Estimated
Fri 11:01:00 AM 31.1979 121.3363 350° North  Level Estimated
Fri 11:02:00 AM 31.1979 121.3363 350° North  Level Estimated
Fri 11:03:00 AM 31.1979 121.3363 350° North  Level Estimated
Fri 11:04:00 AM 31.1979 121.3363 350° North  Level Estimated
Fri 11:05:00 AM 31.1979 121.3363 350° North  Level Estimated
Fri 11:06:00 AM 31.1979 121.3363 350° North  Level Estimated
Fri 11:07:00 AM 31.1979 121.3363 350° North  Level Estimated
Fri 11:08:00 AM 31.1979 121.3363 350° North  Level Estimated
Fri 11:09:00 AM 31.1979 121.3363 350° North  Level Estimated
Fri 11:10:00 AM 31.1979 121.3363 350° North  Level Estimated
Fri 11:11:00 AM 31.1979 121.3363 350° North  Level Estimated
Fri 11:12:00 AM 31.1979 121.3363 350° North  Level Estimated
Fri 11:13:00 AM 31.1979 121.3363 350° North  Level Estimated
Fri 11:14:00 AM 31.1979 121.3363 350° North  Level Estimated
Fri 11:15:00 AM 31.1979 121.3363 350° North  Level Estimated
Fri 11:16:00 AM 31.1979 121.3363 350° North  Level Estimated
Fri 11:17:00 AM 31.1979 121.3363 350° North  Level Estimated
Fri 11:18:00 AM 31.1979 121.3363 350° North  Level Estimated
Fri 11:19:00 AM 31.1979 121.3363 350° North  Level Estimated
Fri 11:20:00 AM 31.1979 121.3363 350° North  Level Estimated
Fri 11:21:00 AM 31.1979 121.3363 350° North  Level Estimated
Fri 11:22:00 AM 31.1979 121.3363 350° North  Level Estimated
Fri 11:23:00 AM 31.1979 121.3363 350° North  Level Estimated
Fri 11:24:00 AM 31.1979 121.3363 350° North  Level Estimated
Fri 11:25:00 AM 31.1979 121.3363 350° North  Level Estimated
Fri 11:26:00 AM 31.1979 121.3363 350° North  Level Estimated

Login

Don't have an account? Register now (free) for customized features, flight alerts, and more!